Time;durP1;ratioP1;P1;durP2;ratioP2;P2;SDS_P1;SDS_P2;PMS_P1;PMS_P2;Temp;Humidity;BMP_temperature;BMP_pressure;BME280_temperature;BME280_humidity;BME280_pressure;Samples;Min_cycle;Max_cycle;Signal;HPM_P1;HPM_P2
2021/06/17 00:00:43;;;;;;;16.67;13.20;;;19.70;99.90;;;;;;5111335;28;20494;-55
2021/06/17 00:03:10;;;;;;;15.00;13.60;;;19.70;99.90;;;;;;5117431;28;20772;-55
2021/06/17 00:05:37;;;;;;;14.47;13.17;;;19.70;99.90;;;;;;5113194;28;20443;-55
2021/06/17 00:08:08;;;;;;;16.30;13.53;;;19.70;99.90;;;;;;5116616;28;20473;-54
2021/06/17 00:10:38;;;;;;;13.63;12.43;;;19.60;99.90;;;;;;5117573;28;20564;-55
2021/06/17 00:13:13;;;;;;;15.17;13.77;;;19.60;99.90;;;;;;5118216;28;20680;-55
2021/06/17 00:15:42;;;;;;;14.57;13.00;;;19.50;99.90;;;;;;5115880;28;20412;-54
2021/06/17 00:18:11;;;;;;;16.97;15.37;;;19.50;99.90;;;;;;5118891;28;20420;-52
2021/06/17 00:20:38;;;;;;;14.83;13.40;;;19.30;99.90;;;;;;5104629;28;20468;-52
2021/06/17 00:23:07;;;;;;;14.93;13.40;;;19.30;99.90;;;;;;5117910;28;20405;-54
2021/06/17 00:25:34;;;;;;;17.10;15.43;;;19.30;99.90;;;;;;5104689;28;20453;-54
2021/06/17 00:28:02;;;;;;;15.63;14.13;;;19.40;99.90;;;;;;5118906;28;20416;-52
2021/06/17 00:30:29;;;;;;;14.67;13.27;;;19.30;99.90;;;;;;5104204;28;20485;-53
2021/06/17 00:32:56;;;;;;;16.33;14.83;;;19.30;99.90;;;;;;5118636;28;20424;-56
2021/06/17 00:35:25;;;;;;;17.67;15.87;;;19.30;99.90;;;;;;5118089;28;20446;-54
2021/06/17 00:37:52;;;;;;;13.70;12.40;;;19.20;99.90;;;;;;5117624;28;20417;-53
2021/06/17 00:40:21;;;;;;;14.87;13.33;;;19.30;99.90;;;;;;5116756;28;20457;-54
2021/06/17 00:42:49;;;;;;;15.87;14.47;;;19.30;99.90;;;;;;5116126;28;20413;-55
2021/06/17 00:45:23;;;;;;;14.90;13.37;;;19.20;99.90;;;;;;5115842;28;20446;-53
2021/06/17 00:47:50;;;;;;;14.60;13.13;;;19.20;99.90;;;;;;5115679;28;20416;-54
2021/06/17 00:50:19;;;;;;;15.83;14.37;;;19.10;99.90;;;;;;5106490;28;20695;-53
2021/06/17 00:52:46;;;;;;;16.33;14.63;;;19.00;99.90;;;;;;5112972;28;20441;-52
2021/06/17 00:55:13;;;;;;;14.70;13.30;;;19.10;99.90;;;;;;5110661;28;20441;-54
2021/06/17 00:57:41;;;;;;;23.73;13.60;;;19.10;99.90;;;;;;5110485;28;20443;-54
2021/06/17 01:00:11;;;;;;;16.07;14.60;;;18.90;99.90;;;;;;5117451;28;20479;-51
2021/06/17 01:02:39;;;;;;;18.57;16.03;;;18.90;99.90;;;;;;5109957;28;20758;-54
2021/06/17 01:05:11;;;;;;;19.17;15.37;;;18.80;99.90;;;;;;5110715;28;20711;-55
2021/06/17 01:07:47;;;;;;;17.27;15.47;;;18.80;99.90;;;;;;5111463;28;20662;-56
2021/06/17 01:10:30;;;;;;;18.90;15.87;;;20.20;99.90;;;;;;5107071;28;20449;-55
2021/06/17 01:13:05;;;;;;;16.30;14.90;;;18.80;99.90;;;;;;5109363;28;20433;-55
2021/06/17 01:16:06;;;;;;;17.30;15.10;;;18.90;99.90;;;;;;5114999;28;20485;-54
2021/06/17 01:18:35;;;;;;;18.50;16.60;;;18.90;99.90;;;;;;5105636;28;20431;-55
2021/06/17 01:21:11;;;;;;;14.43;13.23;;;18.70;99.90;;;;;;5098665;28;20454;-51
2021/06/17 01:24:03;;;;;;;17.17;15.57;;;18.70;99.90;;;;;;5113521;28;20444;-52
2021/06/17 01:26:40;;;;;;;21.03;13.23;;;18.80;99.90;;;;;;5103002;28;20404;-52
2021/06/17 01:29:14;;;;;;;16.23;14.80;;;18.70;99.90;;;;;;5104878;28;20938;-53
2021/06/17 01:31:42;;;;;;;14.77;13.37;;;18.60;99.90;;;;;;5116299;28;20431;-54
2021/06/17 01:34:11;;;;;;;17.63;15.93;;;18.60;99.90;;;;;;5106077;28;20804;-55
2021/06/17 01:36:48;;;;;;;17.23;14.57;;;18.70;99.90;;;;;;5109497;28;20421;-55
2021/06/17 01:39:18;;;;;;;20.37;16.37;;;18.60;99.90;;;;;;5100107;28;20410;-54
2021/06/17 01:41:48;;;;;;;18.40;16.60;;;19.40;99.90;;;;;;5100883;28;20466;-54
2021/06/17 01:44:19;;;;;;;16.17;14.47;;;18.50;99.90;;;;;;5115249;28;20622;-53
2021/06/17 01:46:48;;;;;;;16.60;15.00;;;18.30;99.90;;;;;;5114964;28;20498;-52
2021/06/17 01:49:17;;;;;;;16.40;14.50;;;18.40;99.90;;;;;;5117034;28;20427;-55
2021/06/17 01:51:46;;;;;;;17.93;15.80;;;18.40;99.90;;;;;;5108508;28;20828;-55
2021/06/17 01:54:26;;;;;;;15.53;14.03;;;18.40;99.90;;;;;;5117739;28;20476;-54
2021/06/17 01:56:57;;;;;;;16.10;14.63;;;18.30;99.90;;;;;;5109191;28;20480;-51
2021/06/17 01:59:25;;;;;;;16.60;14.90;;;18.20;99.90;;;;;;5114902;28;20452;-53
2021/06/17 02:01:56;;;;;;;17.57;15.77;;;18.20;99.90;;;;;;5112374;28;20457;-55
2021/06/17 02:04:25;;;;;;;17.90;16.03;;;18.20;99.90;;;;;;5115299;28;20424;-54
2021/06/17 02:06:53;;;;;;;16.67;15.00;;;18.20;99.90;;;;;;5113859;28;20541;-53
2021/06/17 02:09:25;;;;;;;17.70;16.10;;;18.00;99.90;;;;;;5113500;28;20416;-53
2021/06/17 02:11:53;;;;;;;21.70;16.97;;;18.00;99.90;;;;;;5107398;28;20494;-53
2021/06/17 02:14:20;;;;;;;20.47;15.10;;;17.80;99.90;;;;;;5120263;28;20440;-51
2021/06/17 02:16:49;;;;;;;20.10;14.60;;;17.80;99.90;;;;;;5105066;28;20468;-55
2021/06/17 02:19:19;;;;;;;21.10;15.90;;;17.90;99.90;;;;;;5121080;28;20416;-50
2021/06/17 02:21:52;;;;;;;17.37;15.87;;;17.90;99.90;;;;;;5101539;28;21176;-54
2021/06/17 02:24:20;;;;;;;16.10;14.60;;;17.90;99.90;;;;;;5101178;28;20468;-51
2021/06/17 02:26:51;;;;;;;16.03;14.53;;;17.90;99.90;;;;;;5112840;28;20448;-54
2021/06/17 02:29:19;;;;;;;18.17;16.50;;;17.90;99.90;;;;;;5100209;28;20449;-52
2021/06/17 02:31:49;;;;;;;18.33;14.87;;;17.80;99.90;;;;;;5113586;28;20632;-57
2021/06/17 02:34:17;;;;;;;16.17;14.67;;;17.80;99.90;;;;;;5102262;28;20636;-54
2021/06/17 02:36:46;;;;;;;19.87;16.87;;;17.90;99.90;;;;;;5100196;28;20703;-52
2021/06/17 02:39:16;;;;;;;18.77;16.97;;;17.80;99.90;;;;;;5119339;28;20464;-55
2021/06/17 02:41:48;;;;;;;19.27;17.20;;;17.80;99.90;;;;;;5119492;28;20872;-53
2021/06/17 02:44:17;;;;;;;17.80;16.20;;;17.70;99.90;;;;;;5111174;28;20478;-56
2021/06/17 02:46:44;;;;;;;16.70;15.07;;;17.70;99.90;;;;;;5119645;27;20463;-56
2021/06/17 02:49:12;;;;;;;20.00;16.77;;;17.70;99.90;;;;;;5113495;28;20416;-54
2021/06/17 02:51:39;;;;;;;17.80;16.10;;;17.70;99.90;;;;;;5118977;27;20419;-55
2021/06/17 02:54:06;;;;;;;17.23;15.50;;;17.80;99.90;;;;;;5118986;28;20646;-55
2021/06/17 02:56:52;;;;;;;18.47;16.70;;;17.70;99.90;;;;;;5112454;28;20613;-54
2021/06/17 02:59:32;;;;;;;19.37;17.57;;;17.70;99.90;;;;;;5111934;28;20438;-55
2021/06/17 03:02:17;;;;;;;19.30;17.50;;;17.60;99.90;;;;;;5107827;28;20493;-53
2021/06/17 03:04:52;;;;;;;20.40;18.10;;;17.60;99.90;;;;;;5099333;28;20429;-55
2021/06/17 03:07:23;;;;;;;18.33;16.20;;;17.70;99.90;;;;;;5100363;28;20529;-52
2021/06/17 03:09:56;;;;;;;18.83;16.93;;;17.70;99.90;;;;;;5113436;28;20770;-52
2021/06/17 03:12:26;;;;;;;18.63;16.73;;;17.70;99.90;;;;;;5111861;28;20831;-55
2021/06/17 03:14:58;;;;;;;17.23;15.50;;;17.80;99.90;;;;;;5119285;28;20445;-53
2021/06/17 03:17:27;;;;;;;17.37;15.73;;;17.80;99.90;;;;;;5117049;28;20701;-53
2021/06/17 03:19:56;;;;;;;19.77;17.00;;;17.90;99.90;;;;;;5119228;28;20656;-55
2021/06/17 03:22:25;;;;;;;21.80;16.73;;;18.00;99.90;;;;;;5115279;28;20452;-50
2021/06/17 03:24:59;;;;;;;17.53;15.73;;;18.00;99.90;;;;;;5118063;28;20439;-53
2021/06/17 03:27:26;;;;;;;23.30;18.43;;;18.10;99.90;;;;;;5117844;28;20598;-53
2021/06/17 03:29:55;;;;;;;18.53;16.57;;;18.30;99.90;;;;;;5113552;28;20955;-53
2021/06/17 03:32:26;;;;;;;18.80;16.27;;;18.50;99.90;;;;;;5117714;28;20435;-52
2021/06/17 03:34:54;;;;;;;21.67;17.23;;;18.70;99.90;;;;;;5118884;28;20632;-55
2021/06/17 03:37:24;;;;;;;18.43;16.60;;;18.90;99.90;;;;;;5118671;27;20420;-54
2021/06/17 03:39:53;;;;;;;18.80;16.80;;;19.20;99.90;;;;;;5119048;28;20449;-53
2021/06/17 03:42:21;;;;;;;18.40;16.37;;;19.60;99.90;;;;;;5119069;28;20460;-54
2021/06/17 03:44:51;;;;;;;17.77;16.13;;;20.00;99.90;;;;;;5119117;28;20473;-54
2021/06/17 03:47:21;;;;;;;17.27;15.67;;;20.30;99.90;;;;;;5111313;28;20446;-55
2021/06/17 03:49:50;;;;;;;17.10;15.40;;;20.80;99.90;;;;;;5111107;28;20413;-56
2021/06/17 03:52:17;;;;;;;18.67;16.17;;;21.10;99.90;;;;;;5118644;28;20462;-55
2021/06/17 03:54:45;;;;;;;16.90;15.17;;;21.30;99.90;;;;;;5117620;28;20455;-57
2021/06/17 03:57:13;;;;;;;15.33;14.10;;;21.40;99.90;;;;;;5118136;28;20413;-54
2021/06/17 03:59:42;;;;;;;18.57;14.90;;;21.20;99.90;;;;;;5117731;28;20420;-54
2021/06/17 04:02:10;;;;;;;16.90;15.23;;;21.20;99.90;;;;;;5105660;28;20503;-57
2021/06/17 04:04:38;;;;;;;18.60;16.60;;;21.20;99.90;;;;;;5100208;28;20902;-56
2021/06/17 04:07:12;;;;;;;19.23;17.53;;;21.00;99.90;;;;;;5110635;28;20738;-58
2021/06/17 04:09:42;;;;;;;16.47;15.07;;;20.60;99.90;;;;;;5098621;28;20421;-57
2021/06/17 04:12:29;;;;;;;17.53;15.93;;;20.50;99.90;;;;;;5104195;28;20447;-56
2021/06/17 04:14:59;;;;;;;17.90;16.10;;;20.40;99.90;;;;;;5111695;28;20432;-55
2021/06/17 04:17:29;;;;;;;18.07;16.30;;;20.40;99.90;;;;;;5115002;28;20462;-55
2021/06/17 04:19:59;;;;;;;16.80;15.10;;;20.30;99.90;;;;;;5111317;28;20461;-56
2021/06/17 04:22:27;;;;;;;16.80;15.27;;;20.30;99.90;;;;;;5100460;28;20449;-57
2021/06/17 04:25:00;;;;;;;17.97;16.37;;;20.40;99.90;;;;;;5101053;28;20843;-56
2021/06/17 04:27:28;;;;;;;16.23;14.60;;;20.40;99.90;;;;;;5101579;28;20474;-54
2021/06/17 04:29:57;;;;;;;19.63;17.63;;;20.40;99.90;;;;;;5107126;28;20617;-58
2021/06/17 04:32:25;;;;;;;17.83;16.03;;;20.30;99.90;;;;;;5100904;28;20489;-53
2021/06/17 04:34:54;;;;;;;17.20;15.60;;;20.20;99.90;;;;;;5110423;28;20409;-53
2021/06/17 04:37:25;;;;;;;19.10;17.03;;;20.20;99.90;;;;;;5109849;28;20416;-55
2021/06/17 04:39:58;;;;;;;18.67;16.87;;;20.30;99.90;;;;;;5105776;28;20438;-58
2021/06/17 04:42:27;;;;;;;19.83;18.00;;;20.40;99.90;;;;;;5108657;28;20520;-53
2021/06/17 04:44:55;;;;;;;17.67;15.67;;;21.00;99.90;;;;;;5106022;28;20679;-55
2021/06/17 04:47:22;;;;;;;19.97;17.63;;;20.50;99.90;;;;;;5107874;28;20806;-52
2021/06/17 04:49:50;;;;;;;18.53;16.63;;;20.60;99.90;;;;;;5115354;28;20424;-56
2021/06/17 04:52:35;;;;;;;18.57;15.50;;;20.70;99.90;;;;;;5116355;28;20438;-56
2021/06/17 04:55:03;;;;;;;18.20;16.50;;;20.90;99.90;;;;;;5111859;28;20438;-56
2021/06/17 04:57:30;;;;;;;16.40;14.83;;;20.90;99.90;;;;;;5116274;28;20540;-56
2021/06/17 04:59:57;;;;;;;20.50;17.57;;;21.00;99.90;;;;;;5112511;28;20830;-55
2021/06/17 05:02:25;;;;;;;19.13;17.23;;;21.10;99.90;;;;;;5114915;28;20531;-56
2021/06/17 05:04:52;;;;;;;22.03;16.60;;;21.00;99.90;;;;;;5116669;28;20425;-55
2021/06/17 05:12:31;;;;;;;18.67;16.87;;;21.30;99.90;;;;;;5095254;28;20428;-55
2021/06/17 05:14:59;;;;;;;21.00;17.17;;;21.40;99.90;;;;;;5102160;28;20746;-55
2021/06/17 05:17:26;;;;;;;19.93;16.60;;;21.50;99.90;;;;;;5116979;28;20426;-56
2021/06/17 05:19:53;;;;;;;21.27;16.47;;;21.80;99.90;;;;;;5114750;28;20449;-57
2021/06/17 05:22:20;;;;;;;20.80;15.73;;;21.90;99.90;;;;;;5116610;28;20447;-56
2021/06/17 05:24:48;;;;;;;19.03;17.20;;;22.10;99.90;;;;;;5098332;28;20444;-56
2021/06/17 05:27:15;;;;;;;20.03;17.93;;;22.10;99.90;;;;;;5095788;28;20490;-57
2021/06/17 05:29:42;;;;;;;18.63;16.93;;;22.10;99.90;;;;;;5095946;28;20495;-55
2021/06/17 05:32:09;;;;;;;19.50;17.47;;;22.00;99.90;;;;;;5103740;28;20447;-56
2021/06/17 05:34:36;;;;;;;18.70;16.80;;;22.00;99.90;;;;;;5118924;28;20441;-58
2021/06/17 05:37:05;;;;;;;18.27;16.67;;;22.20;99.90;;;;;;5099720;28;20557;-54
2021/06/17 05:39:32;;;;;;;19.87;16.80;;;22.30;99.90;;;;;;5112578;28;20720;-55
2021/06/17 05:41:59;;;;;;;18.43;16.80;;;22.40;99.90;;;;;;5100107;28;20463;-56
2021/06/17 05:44:26;;;;;;;16.57;15.00;;;22.50;99.90;;;;;;5099754;28;20495;-56
2021/06/17 05:46:53;;;;;;;20.47;18.57;;;22.60;99.90;;;;;;5103655;28;20724;-56
2021/06/17 05:49:23;;;;;;;19.33;17.30;;;22.70;99.90;;;;;;5114907;28;20451;-57
2021/06/17 05:51:51;;;;;;;19.83;17.73;;;22.90;99.90;;;;;;5118983;28;20421;-55
2021/06/17 05:54:19;;;;;;;18.60;17.07;;;23.00;99.90;;;;;;5116504;28;20503;-56
2021/06/17 05:56:46;;;;;;;18.07;16.30;;;23.10;99.90;;;;;;5112380;28;20622;-57
2021/06/17 05:59:13;;;;;;;20.97;18.57;;;23.30;99.90;;;;;;5116218;28;20583;-56
2021/06/17 06:01:40;;;;;;;19.70;17.43;;;23.30;99.90;;;;;;5118932;28;20416;-57
2021/06/17 06:04:07;;;;;;;17.60;15.90;;;23.50;99.90;;;;;;5104075;28;20443;-57
2021/06/17 06:06:34;;;;;;;18.87;17.27;;;23.60;99.90;;;;;;5105995;28;20465;-56
2021/06/17 06:09:02;;;;;;;16.97;15.50;;;23.90;99.90;;;;;;5106617;28;20447;-57
2021/06/17 06:11:30;;;;;;;17.23;15.50;;;24.00;99.70;;;;;;5104828;28;20446;-53
2021/06/17 06:13:57;;;;;;;18.40;16.70;;;24.20;99.40;;;;;;5108242;28;20488;-55
2021/06/17 06:16:24;;;;;;;18.13;16.33;;;24.30;98.80;;;;;;5112559;28;20648;-55
2021/06/17 06:18:52;;;;;;;17.47;15.80;;;24.80;98.30;;;;;;5099164;28;20443;-57
2021/06/17 06:21:19;;;;;;;18.57;16.70;;;25.20;97.30;;;;;;5114496;28;20449;-58
2021/06/17 06:23:46;;;;;;;18.30;16.40;;;25.70;96.40;;;;;;5119417;28;20474;-56
2021/06/17 06:26:13;;;;;;;17.73;16.13;;;26.60;94.70;;;;;;5104006;28;20443;-55
2021/06/17 06:28:40;;;;;;;16.83;15.17;;;27.60;92.60;;;;;;5099074;28;20414;-58
2021/06/17 06:31:07;;;;;;;16.87;15.30;;;28.40;92.00;;;;;;5111744;28;20456;-56
2021/06/17 06:33:35;;;;;;;17.67;16.17;;;28.70;91.20;;;;;;5103637;28;20667;-56
2021/06/17 06:36:02;;;;;;;16.40;15.10;;;28.30;90.80;;;;;;5119605;28;20446;-57
2021/06/17 06:38:29;;;;;;;16.70;14.60;;;28.10;91.20;;;;;;5104230;28;20534;-56
2021/06/17 06:40:56;;;;;;;16.07;14.87;;;28.30;90.90;;;;;;5119302;28;20445;-56
2021/06/17 06:43:23;;;;;;;15.93;14.63;;;28.40;90.50;;;;;;5104204;28;20675;-56
2021/06/17 06:45:50;;;;;;;15.77;14.47;;;28.80;89.20;;;;;;5116144;28;20495;-55
2021/06/17 06:48:18;;;;;;;15.63;14.53;;;29.80;86.10;;;;;;5113264;28;20581;-56
2021/06/17 06:50:48;;;;;;;15.17;13.97;;;30.80;83.30;;;;;;5113712;28;20453;-56
2021/06/17 06:53:15;;;;;;;15.23;14.13;;;32.20;76.80;;;;;;5109842;28;20504;-56
2021/06/17 06:55:42;;;;;;;16.90;15.50;;;32.30;73.60;;;;;;5116862;28;20468;-56
2021/06/17 06:58:13;;;;;;;16.77;15.50;;;33.30;70.00;;;;;;5112813;28;20449;-55
2021/06/17 07:00:43;;;;;;;16.23;15.03;;;34.70;65.00;;;;;;5118859;28;20442;-57
2021/06/17 07:03:11;;;;;;;14.67;13.77;;;35.80;58.30;;;;;;5110022;28;20752;-55
2021/06/17 07:05:38;;;;;;;17.90;16.60;;;36.20;56.30;;;;;;5117205;28;20439;-56
2021/06/17 07:08:14;;;;;;;17.33;15.93;;;36.80;54.80;;;;;;5117662;28;20689;-59
2021/06/17 07:10:43;;;;;;;15.67;14.20;;;37.30;52.60;;;;;;5113889;28;20741;-56
2021/06/17 07:13:11;;;;;;;14.97;13.97;;;38.40;50.40;;;;;;5117768;27;20725;-56
2021/06/17 07:15:38;;;;;;;15.63;14.70;;;38.50;47.80;;;;;;5116384;28;20640;-58
2021/06/17 07:18:07;;;;;;;14.43;13.43;;;37.60;48.70;;;;;;5124367;28;20546;-54
2021/06/17 07:20:34;;;;;;;15.23;14.03;;;37.10;49.50;;;;;;5124156;28;20506;-56
2021/06/17 07:23:02;;;;;;;13.80;12.90;;;37.20;49.10;;;;;;5124435;28;20458;-57
2021/06/17 07:25:29;;;;;;;14.20;13.30;;;37.30;49.10;;;;;;5123198;28;20442;-58
2021/06/17 07:27:56;;;;;;;15.63;14.53;;;36.80;48.80;;;;;;5124196;28;20433;-55
2021/06/17 07:30:24;;;;;;;14.03;13.10;;;36.60;49.20;;;;;;5123731;28;20725;-58
2021/06/17 07:32:51;;;;;;;13.77;12.90;;;35.90;49.60;;;;;;5124457;28;20610;-55
2021/06/17 07:35:19;;;;;;;13.07;12.07;;;36.00;49.60;;;;;;5124356;28;20483;-53
2021/06/17 07:37:46;;;;;;;13.50;12.70;;;36.80;48.70;;;;;;5123610;28;20438;-59
2021/06/17 07:40:14;;;;;;;11.63;10.73;;;37.30;46.90;;;;;;5122427;28;20506;-58
2021/06/17 07:42:41;;;;;;;15.47;14.43;;;37.00;47.10;;;;;;5123319;28;20466;-57
2021/06/17 07:45:10;;;;;;;13.27;12.37;;;36.90;47.30;;;;;;5123560;28;20439;-57
2021/06/17 07:47:38;;;;;;;13.57;12.70;;;37.50;46.70;;;;;;5123895;28;20445;-57
2021/06/17 07:50:08;;;;;;;14.17;13.37;;;37.90;46.10;;;;;;5122165;28;20544;-57
2021/06/17 07:52:36;;;;;;;14.00;13.07;;;39.50;43.10;;;;;;5123774;28;20440;-57
2021/06/17 07:55:05;;;;;;;12.33;11.53;;;37.20;43.40;;;;;;5123583;28;20442;-57
2021/06/17 07:57:32;;;;;;;13.23;12.53;;;37.20;45.10;;;;;;5123565;28;20457;-58
2021/06/17 07:59:59;;;;;;;13.53;12.60;;;37.50;44.90;;;;;;5123475;28;20479;-56
2021/06/17 08:02:26;;;;;;;14.13;13.13;;;38.40;43.90;;;;;;5122720;28;20633;-56
2021/06/17 08:04:53;;;;;;;14.17;13.27;;;39.50;42.30;;;;;;5123115;28;20484;-57
2021/06/17 08:07:20;;;;;;;11.77;11.07;;;36.60;42.80;;;;;;5123084;28;20438;-56
2021/06/17 08:09:47;;;;;;;12.43;11.83;;;37.10;45.10;;;;;;5122697;28;20499;-58
2021/06/17 08:12:14;;;;;;;13.40;12.57;;;38.30;43.20;;;;;;5122763;28;20620;-58
2021/06/17 08:14:42;;;;;;;13.10;12.40;;;39.20;42.00;;;;;;5122792;28;20441;-57
2021/06/17 08:17:09;;;;;;;12.50;11.80;;;39.70;40.00;;;;;;5109233;28;20575;-58
2021/06/17 08:19:36;;;;;;;12.13;11.53;;;39.00;40.30;;;;;;5113706;28;20478;-56
2021/06/17 08:22:06;;;;;;;13.03;12.33;;;36.60;43.60;;;;;;5117979;28;20466;-57
2021/06/17 08:24:44;;;;;;;11.60;11.00;;;37.00;42.80;;;;;;5102304;28;20506;-58
2021/06/17 08:27:11;;;;;;;11.60;10.90;;;36.30;44.50;;;;;;5113543;28;20614;-58
2021/06/17 08:29:38;;;;;;;12.40;11.70;;;35.70;43.60;;;;;;5114960;28;20434;-56
2021/06/17 08:32:06;;;;;;;11.40;10.80;;;36.20;43.90;;;;;;5117220;28;20814;-58
2021/06/17 08:34:33;;;;;;;11.73;11.03;;;37.10;42.10;;;;;;5117378;28;20692;-57
2021/06/17 08:37:00;;;;;;;11.43;10.83;;;38.50;39.60;;;;;;5116149;28;20438;-56
2021/06/17 08:39:30;;;;;;;11.17;10.57;;;38.60;39.00;;;;;;5114086;28;20601;-58
2021/06/17 08:42:00;;;;;;;13.03;12.43;;;38.70;39.40;;;;;;5112274;28;20438;-57
2021/06/17 08:44:29;;;;;;;11.37;10.77;;;38.40;40.00;;;;;;5114524;28;20501;-57
2021/06/17 08:46:57;;;;;;;12.03;11.43;;;39.80;38.90;;;;;;5114923;28;20471;-58
2021/06/17 08:49:27;;;;;;;11.30;10.80;;;39.20;38.70;;;;;;5115701;28;20505;-57
2021/06/17 08:51:59;;;;;;;11.73;11.13;;;40.60;37.80;;;;;;5104745;27;20586;-57
2021/06/17 08:54:27;;;;;;;11.70;11.00;;;40.70;36.80;;;;;;5110830;28;20499;-57
2021/06/17 08:56:54;;;;;;;11.50;10.90;;;38.50;35.80;;;;;;5113197;28;20836;-57
2021/06/17 08:59:38;;;;;;;10.27;9.67;;;38.80;38.50;;;;;;5111735;28;20443;-56
2021/06/17 09:02:06;;;;;;;11.13;10.53;;;38.10;38.00;;;;;;5099450;28;20439;-58
2021/06/17 09:04:33;;;;;;;9.70;9.30;;;37.90;38.80;;;;;;5105382;28;20489;-60
2021/06/17 09:07:11;;;;;;;10.30;9.80;;;38.00;38.50;;;;;;5116868;28;20442;-61
2021/06/17 09:09:48;;;;;;;11.43;10.57;;;39.20;37.50;;;;;;5115255;28;20487;-59
2021/06/17 09:12:19;;;;;;;10.57;9.90;;;38.70;37.30;;;;;;5102428;28;20491;-58
2021/06/17 09:15:03;;;;;;;9.50;9.07;;;38.50;38.00;;;;;;5108588;28;20456;-57
2021/06/17 09:17:30;;;;;;;9.23;8.70;;;39.10;37.60;;;;;;5113817;28;20489;-58
2021/06/17 09:19:57;;;;;;;9.77;9.37;;;;;;;;;;5112227;28;20625;-59
2021/06/17 09:22:26;;;;;;;10.23;9.73;;;38.90;35.80;;;;;;5112276;28;20776;-57
2021/06/17 09:24:54;;;;;;;10.40;9.40;;;41.50;36.90;;;;;;5114970;28;20488;-59
2021/06/17 09:27:31;;;;;;;10.30;9.70;;;39.60;35.50;;;;;;5115668;28;20799;-61
2021/06/17 09:30:10;;;;;;;10.53;10.03;;;39.80;35.30;;;;;;5113677;28;20674;-58
2021/06/17 09:32:48;;;;;;;9.90;9.40;;;39.90;35.70;;;;;;5108101;28;20422;-59
2021/06/17 09:35:15;;;;;;;9.40;9.00;;;38.60;37.10;;;;;;5117210;28;20499;-58
2021/06/17 09:37:43;;;;;;;10.00;9.60;;;;;;;;;;5108488;28;20438;-59
2021/06/17 09:40:22;;;;;;;9.70;9.10;;;;;;;;;;5109440;28;20446;-59
2021/06/17 09:42:50;;;;;;;9.97;9.57;;;32.90;44.00;;;;;;5114140;28;20470;-59
2021/06/17 09:45:21;;;;;;;9.10;8.60;;;32.70;45.10;;;;;;5114297;28;20434;-58
2021/06/17 09:47:48;;;;;;;10.50;9.63;;;31.80;46.80;;;;;;5110808;28;20486;-59
2021/06/17 09:50:23;;;;;;;8.50;8.10;;;31.60;48.20;;;;;;5116061;28;20509;-58
2021/06/17 09:52:52;;;;;;;9.97;9.33;;;31.50;48.60;;;;;;5115809;28;20446;-59
2021/06/17 09:55:42;;;;;;;9.57;9.07;;;31.40;47.30;;;;;;5115267;28;20469;-58
2021/06/17 09:58:32;;;;;;;8.40;8.00;;;31.30;48.10;;;;;;5116346;28;20770;-57
2021/06/17 10:01:01;;;;;;;9.07;8.47;;;30.90;47.10;;;;;;5109020;28;20438;-57
2021/06/17 10:03:28;;;;;;;9.00;8.50;;;30.70;48.20;;;;;;5115674;28;20916;-58
2021/06/17 10:05:56;;;;;;;8.73;8.23;;;30.70;48.10;;;;;;5111583;28;20469;-58
2021/06/17 10:08:27;;;;;;;8.43;8.03;;;30.60;49.20;;;;;;5112202;28;20446;-58
2021/06/17 10:10:54;;;;;;;9.00;8.40;;;30.50;49.40;;;;;;5115378;28;20442;-58
2021/06/17 10:13:26;;;;;;;8.10;7.60;;;30.40;48.70;;;;;;5102134;28;20621;-57
2021/06/17 10:15:53;;;;;;;8.37;7.87;;;30.60;49.00;;;;;;5102403;28;20455;-58
2021/06/17 10:18:20;;;;;;;8.00;7.50;;;30.60;47.20;;;;;;5108552;28;20667;-58
2021/06/17 10:20:49;;;;;;;7.80;7.30;;;31.20;48.30;;;;;;5114243;28;20477;-57
2021/06/17 10:23:20;;;;;;;8.17;7.77;;;30.20;47.20;;;;;;5101194;28;20700;-57
2021/06/17 10:25:48;;;;;;;8.90;8.40;;;30.00;47.90;;;;;;5115960;28;20446;-58
2021/06/17 10:28:41;;;;;;;8.80;8.40;;;29.90;49.20;;;;;;5116021;28;20445;-58
2021/06/17 10:31:10;;;;;;;9.40;8.63;;;29.90;49.00;;;;;;5112225;28;20750;-57
2021/06/17 10:33:39;;;;;;;9.07;8.17;;;29.90;49.20;;;;;;5118770;27;20803;-57
2021/06/17 10:36:24;;;;;;;9.67;9.17;;;30.10;48.80;;;;;;5118927;28;20629;-58
2021/06/17 10:39:12;;;;;;;9.00;8.50;;;30.10;47.50;;;;;;5118861;28;20786;-58
2021/06/17 10:42:02;;;;;;;8.57;8.07;;;30.10;48.40;;;;;;5118546;28;20487;-57
2021/06/17 10:44:48;;;;;;;9.33;8.73;;;30.20;49.10;;;;;;5107138;28;21022;-58
2021/06/17 10:47:49;;;;;;;8.63;8.30;;;30.40;48.40;;;;;;5101111;28;20466;-58
2021/06/17 10:50:19;;;;;;;8.70;8.20;;;30.40;48.10;;;;;;5116649;28;20439;-58
2021/06/17 10:52:47;;;;;;;7.43;7.03;;;30.40;47.40;;;;;;5114873;28;20438;-57
2021/06/17 10:55:17;;;;;;;8.37;7.63;;;29.90;46.60;;;;;;5114862;28;20442;-58
2021/06/17 10:57:45;;;;;;;8.00;7.40;;;29.90;47.40;;;;;;5118615;28;20442;-59
2021/06/17 11:00:22;;;;;;;9.23;8.30;;;29.90;47.40;;;;;;5115127;28;20431;-58
2021/06/17 11:03:04;;;;;;;8.50;7.80;;;30.00;49.00;;;;;;5116653;28;20433;-58
2021/06/17 11:05:34;;;;;;;8.53;7.90;;;30.90;48.00;;;;;;5114620;28;20431;-58
2021/06/17 11:10:47;;;;;;;10.37;9.30;;;30.30;49.10;;;;;;5112152;28;20438;-59
2021/06/17 11:14:02;;;;;;;9.60;8.97;;;30.50;49.60;;;;;;5118817;28;20441;-57
2021/06/17 11:16:30;;;;;;;9.10;8.60;;;30.40;50.00;;;;;;5113797;28;20808;-60
2021/06/17 11:19:04;;;;;;;8.50;7.90;;;30.50;50.60;;;;;;5109827;28;20715;-59
2021/06/17 11:21:34;;;;;;;8.80;8.40;;;30.70;50.20;;;;;;5116264;28;20825;-59
2021/06/17 11:24:07;;;;;;;8.10;7.70;;;30.80;50.20;;;;;;5117562;28;20474;-59
2021/06/17 11:26:45;;;;;;;9.90;9.13;;;30.90;48.40;;;;;;5112583;28;20851;-59
2021/06/17 11:29:34;;;;;;;8.47;8.07;;;30.90;49.70;;;;;;5111855;28;20492;-58
2021/06/17 11:32:03;;;;;;;8.70;8.10;;;31.10;48.10;;;;;;5104178;28;20513;-58
2021/06/17 11:34:31;;;;;;;8.60;8.20;;;30.80;49.60;;;;;;5117168;28;20441;-58
2021/06/17 11:37:02;;;;;;;10.13;9.63;;;30.80;50.00;;;;;;5118117;28;20480;-58
2021/06/17 11:39:31;;;;;;;10.07;9.27;;;31.00;49.80;;;;;;5113061;28;20481;-57
2021/06/17 11:42:02;;;;;;;9.67;9.17;;;31.10;50.00;;;;;;5110691;28;20949;-59
2021/06/17 11:44:30;;;;;;;9.07;8.57;;;31.10;48.70;;;;;;5109961;28;20738;-58
2021/06/17 11:47:07;;;;;;;10.33;9.73;;;31.00;48.50;;;;;;5118432;28;20470;-58
2021/06/17 11:49:41;;;;;;;9.10;8.60;;;30.60;48.00;;;;;;5110589;28;20518;-57
2021/06/17 11:52:19;;;;;;;10.10;9.40;;;30.50;48.80;;;;;;5115788;28;20438;-58
2021/06/17 11:54:48;;;;;;;9.17;8.37;;;30.40;49.00;;;;;;5111869;28;20443;-57
2021/06/17 11:57:23;;;;;;;9.53;9.03;;;30.40;48.00;;;;;;5114517;28;20512;-59
2021/06/17 11:59:50;;;;;;;8.73;8.00;;;30.60;48.40;;;;;;5117728;28;20539;-58
2021/06/17 12:02:25;;;;;;;9.03;8.53;;;30.50;47.00;;;;;;5098052;28;20888;-58
2021/06/17 12:05:07;;;;;;;8.70;8.10;;;30.70;46.80;;;;;;5096649;28;20513;-59
2021/06/17 12:07:40;;;;;;;8.53;8.13;;;30.60;47.50;;;;;;5096283;28;20759;-58
2021/06/17 12:10:11;;;;;;;8.57;8.07;;;30.70;47.80;;;;;;5106341;28;20449;-59
2021/06/17 12:12:43;;;;;;;9.40;8.70;;;30.80;47.40;;;;;;5102725;28;20466;-59
2021/06/17 12:15:16;;;;;;;9.00;8.20;;;30.70;48.00;;;;;;5117943;28;20454;-57
2021/06/17 12:18:08;;;;;;;8.33;7.90;;;30.60;47.80;;;;;;5115802;28;20772;-58
2021/06/17 12:20:43;;;;;;;9.17;8.67;;;30.80;47.30;;;;;;5104549;28;20477;-58
2021/06/17 12:23:28;;;;;;;9.80;9.20;;;30.80;46.20;;;;;;5099382;28;20493;-58
2021/06/17 12:25:59;;;;;;;8.53;8.03;;;30.70;47.10;;;;;;5097621;28;20622;-58
2021/06/17 12:28:28;;;;;;;9.53;9.03;;;30.90;45.50;;;;;;5114209;28;20624;-58
2021/06/17 12:30:56;;;;;;;10.40;9.70;;;30.80;47.00;;;;;;5105694;28;20470;-59
2021/06/17 12:33:30;;;;;;;9.77;9.17;;;30.90;45.50;;;;;;5110067;28;20445;-58
2021/06/17 12:35:58;;;;;;;8.80;8.40;;;30.80;46.30;;;;;;5108083;28;20460;-57
2021/06/17 12:38:38;;;;;;;8.40;7.90;;;30.80;46.40;;;;;;5099599;28;20431;-59
2021/06/17 12:41:23;;;;;;;8.20;7.80;;;30.80;47.20;;;;;;5109456;28;20441;-57
2021/06/17 12:43:55;;;;;;;9.30;8.87;;;30.90;46.00;;;;;;5113742;28;20478;-56
2021/06/17 12:46:36;;;;;;;8.30;7.80;;;30.90;45.80;;;;;;5115268;28;20442;-58
2021/06/17 12:54:43;;;;;;;8.13;7.63;;;30.90;44.10;;;;;;5115186;28;20438;-58
2021/06/17 12:57:10;;;;;;;8.00;7.60;;;30.90;43.90;;;;;;5114285;28;20438;-58
2021/06/17 12:59:51;;;;;;;8.50;8.03;;;30.80;41.80;;;;;;5116084;28;20659;-58
2021/06/17 13:02:21;;;;;;;8.07;7.67;;;30.90;43.30;;;;;;5113577;28;20439;-59
2021/06/17 13:05:00;;;;;;;7.80;7.40;;;30.90;44.30;;;;;;5110911;28;20479;-58